createdAt,value
2023-02-11T00:02:33.153Z,97407.22
2023-02-11T00:05:19.140Z,97402.03
2023-02-11T00:08:05.029Z,97395.22
2023-02-11T00:10:55.270Z,97396.06
2023-02-11T00:13:42.419Z,97383.38
2023-02-11T00:16:29.525Z,97391.81
2023-02-11T00:19:15.589Z,97395.56
2023-02-11T00:22:01.433Z,97390.66
2023-02-11T00:24:47.281Z,97399.50
2023-02-11T00:27:33.185Z,97359.19
2023-02-11T00:30:18.952Z,97408.31
2023-02-11T00:33:04.726Z,97397.63
2023-02-11T00:35:51.969Z,97386.72
2023-02-11T00:38:37.932Z,97405.69
2023-02-11T00:41:24.859Z,97398.19
2023-02-11T00:44:10.894Z,97407.00
2023-02-11T00:46:56.633Z,97399.13
2023-02-11T00:49:42.409Z,97402.81
2023-02-11T00:52:28.417Z,97402.06
2023-02-11T00:55:15.234Z,97387.72
2023-02-11T00:58:01.566Z,97382.69
2023-02-11T01:00:47.526Z,97409.47
2023-02-11T01:03:33.846Z,97406.09
2023-02-11T01:06:19.931Z,97377.66
2023-02-11T01:09:05.779Z,97399.28
2023-02-11T01:11:54.096Z,97394.84
2023-02-11T01:14:39.996Z,97401.19
2023-02-11T01:17:25.662Z,97395.84
2023-02-11T01:20:21.538Z,97394.16
2023-02-11T01:23:07.609Z,97375.50
2023-02-11T01:25:54.410Z,97377.22
2023-02-11T01:28:40.294Z,97384.94
2023-02-11T01:31:26.890Z,97390.13
2023-02-11T01:34:13.320Z,97385.16
2023-02-11T01:36:59.930Z,97373.78
2023-02-11T01:39:48.183Z,97391.22
2023-02-11T01:42:34.094Z,97370.69
2023-02-11T01:45:42.408Z,97382.84
2023-02-11T01:48:40.712Z,97371.47
2023-02-11T01:51:30.996Z,97370.75
2023-02-11T01:54:38.989Z,97369.06
2023-02-11T01:57:29.331Z,97352.03
2023-02-11T02:00:36.308Z,97372.84
2023-02-11T02:03:22.827Z,97361.78
2023-02-11T02:06:26.045Z,97367.41
2023-02-11T02:09:17.719Z,97352.63
2023-02-11T02:12:04.005Z,97358.69
2023-02-11T02:14:50.378Z,97355.13
2023-02-11T02:17:50.903Z,97337.25
2023-02-11T02:20:45.899Z,97357.03
2023-02-11T02:24:09.462Z,97353.69
2023-02-11T02:27:34.199Z,97359.41
2023-02-11T02:30:39.704Z,97335.34
2023-02-11T02:33:37.972Z,97334.03
2023-02-11T02:36:30.369Z,97356.22
2023-02-11T02:39:21.691Z,97357.19
2023-02-11T02:42:08.512Z,97353.50
2023-02-11T02:44:56.254Z,97358.75
2023-02-11T02:47:42.197Z,97353.59
2023-02-11T02:50:31.722Z,97360.63
2023-02-11T02:53:52.824Z,97357.38
2023-02-11T02:56:44.867Z,97339.31
2023-02-11T02:59:55.624Z,97359.91
2023-02-11T03:03:03.304Z,97353.91
2023-02-11T03:05:58.870Z,97345.44
2023-02-11T03:08:55.626Z,97343.72
2023-02-11T03:11:41.482Z,97346.06
2023-02-11T03:14:28.823Z,97329.00
2023-02-11T03:17:15.551Z,97347.00
2023-02-11T03:20:02.603Z,97330.81
2023-02-11T03:23:26.776Z,97348.13
2023-02-11T03:26:23.761Z,97343.09
2023-02-11T03:29:17.469Z,97348.28
2023-02-11T03:32:16.275Z,97334.72
2023-02-11T03:35:11.397Z,97357.16
2023-02-11T03:38:04.845Z,97358.22
2023-02-11T03:40:50.603Z,97345.19
2023-02-11T03:43:48.314Z,97344.47
2023-02-11T03:46:37.661Z,97318.63
2023-02-11T03:49:24.785Z,97341.00
2023-02-11T03:52:12.408Z,97323.59
2023-02-11T03:55:00.598Z,97322.03
2023-02-11T03:57:47.464Z,97335.78
2023-02-11T04:00:36.730Z,97356.75
2023-02-11T04:03:22.618Z,97337.94
2023-02-11T04:06:08.427Z,97336.38
2023-02-11T04:08:54.636Z,97333.16
2023-02-11T04:11:40.584Z,97313.47
2023-02-11T04:14:26.422Z,97328.00
2023-02-11T04:17:12.810Z,97339.97
2023-02-11T04:19:58.763Z,97338.34
2023-02-11T04:22:44.577Z,97313.50
2023-02-11T04:25:30.558Z,97336.66
2023-02-11T04:28:16.369Z,97320.13
2023-02-11T04:31:02.326Z,97296.34
2023-02-11T04:33:48.077Z,97334.09
2023-02-11T04:36:33.828Z,97324.59
2023-02-11T04:39:19.699Z,97320.19
2023-02-11T04:42:05.589Z,97305.84
2023-02-11T04:44:51.389Z,97333.41
2023-02-11T04:47:38.062Z,97324.00
2023-02-11T04:50:23.921Z,97313.16
2023-02-11T04:53:09.814Z,97336.28
2023-02-11T04:55:55.650Z,97315.06
2023-02-11T04:58:41.573Z,97347.59
2023-02-11T05:01:27.674Z,97348.75
2023-02-11T05:04:13.350Z,97342.94
2023-02-11T05:06:59.267Z,97339.53
2023-02-11T05:09:45.249Z,97339.53
2023-02-11T05:12:30.980Z,97337.06
2023-02-11T05:15:16.898Z,97333.59
2023-02-11T05:18:03.133Z,97324.00
2023-02-11T05:20:49.511Z,97329.19
2023-02-11T05:23:36.599Z,97315.63
2023-02-11T05:26:22.859Z,97309.59
2023-02-11T05:29:08.815Z,97330.97
2023-02-11T05:31:54.593Z,97337.19
2023-02-11T05:34:40.288Z,97336.25
2023-02-11T05:37:26.112Z,97339.03
2023-02-11T05:40:12.059Z,97326.97
2023-02-11T05:42:58.078Z,97327.75
2023-02-11T05:45:43.876Z,97321.13
2023-02-11T05:48:30.061Z,97340.09
2023-02-11T05:51:16.051Z,97334.53
2023-02-11T05:54:01.862Z,97357.63
2023-02-11T05:56:47.670Z,97356.88
2023-02-11T05:59:33.470Z,97353.41
2023-02-11T06:02:19.266Z,97345.66
2023-02-11T06:05:05.295Z,97352.78
2023-02-11T06:07:51.826Z,97350.16
2023-02-11T06:10:38.040Z,97332.03
2023-02-11T06:13:24.348Z,97334.59
2023-02-11T06:16:10.680Z,97331.78
2023-02-11T06:18:56.568Z,97329.16
2023-02-11T06:21:44.417Z,97328.31
2023-02-11T06:24:51.395Z,97330.06
2023-02-11T06:27:37.010Z,97331.81
2023-02-11T06:30:22.837Z,97326.56
2023-02-11T06:33:08.900Z,97323.97
2023-02-11T06:35:54.651Z,97331.69
2023-02-11T06:38:40.700Z,97324.03
2023-02-11T06:41:26.543Z,97325.53
2023-02-11T06:44:12.222Z,97327.19
2023-02-11T06:46:58.223Z,97318.38
2023-02-11T06:49:44.008Z,97327.03
2023-02-11T06:52:29.908Z,97327.81
2023-02-11T06:55:15.983Z,97311.47
2023-02-11T06:58:01.786Z,97332.06
2023-02-11T07:00:47.650Z,97330.16
2023-02-11T07:03:37.705Z,97321.38
2023-02-11T07:06:27.776Z,97311.78
2023-02-11T07:09:13.729Z,97325.50
2023-02-11T07:11:59.542Z,97316.56
2023-02-11T07:14:45.665Z,97315.56
2023-02-11T07:17:31.385Z,97310.19
2023-02-11T07:20:17.351Z,97308.53
2023-02-11T07:23:04.760Z,97327.00
2023-02-11T07:25:50.967Z,97313.94
2023-02-11T07:28:38.287Z,97326.09
2023-02-11T07:31:26.742Z,97323.31
2023-02-11T07:34:12.660Z,97321.16
2023-02-11T07:36:58.709Z,97313.16
2023-02-11T07:39:44.600Z,97309.47
2023-02-11T07:42:30.469Z,97303.16
2023-02-11T07:45:16.408Z,97301.84
2023-02-11T07:48:02.196Z,97300.09
2023-02-11T07:50:50.451Z,97302.75
2023-02-11T07:53:36.705Z,97301.66
2023-02-11T07:56:23.254Z,97311.28
2023-02-11T07:59:09.397Z,97309.91
2023-02-11T08:01:55.354Z,97298.22
2023-02-11T08:04:42.052Z,97303.94
2023-02-11T08:07:29.752Z,97299.31
2023-02-11T08:10:15.886Z,97312.75
2023-02-11T08:13:01.587Z,97302.88
2023-02-11T08:15:47.426Z,97306.13
2023-02-11T08:18:33.922Z,97294.50
2023-02-11T08:21:20.975Z,97288.84
2023-02-11T08:24:07.441Z,97290.91
2023-02-11T08:26:53.348Z,97286.25
2023-02-11T08:29:39.245Z,97293.59
2023-02-11T08:32:25.732Z,97290.63
2023-02-11T08:35:12.599Z,97290.84
2023-02-11T08:37:58.636Z,97277.22
2023-02-11T08:40:44.547Z,97290.50
2023-02-11T08:43:30.339Z,97288.38
2023-02-11T08:46:18.842Z,97287.03
2023-02-11T08:49:04.616Z,97280.50
2023-02-11T08:51:50.387Z,97284.13
2023-02-11T08:54:37.230Z,97240.88
2023-02-11T08:57:23.123Z,97278.03
2023-02-11T09:00:11.226Z,97275.78
2023-02-11T09:02:57.406Z,97270.25
2023-02-11T09:05:47.987Z,97270.78
2023-02-11T09:08:36.068Z,97271.00
2023-02-11T09:11:31.869Z,97233.75
2023-02-11T09:14:20.660Z,97252.22
2023-02-11T09:17:06.554Z,97260.16
2023-02-11T09:19:52.364Z,97247.53
2023-02-11T09:22:38.274Z,97243.50
2023-02-11T09:25:24.056Z,97243.16
2023-02-11T09:28:10.154Z,97252.03
2023-02-11T09:30:56.055Z,97246.66
2023-02-11T09:33:47.871Z,97243.19
2023-02-11T09:36:37.651Z,97243.66
2023-02-11T09:39:23.470Z,97234.31
2023-02-11T09:42:25.958Z,97234.88
2023-02-11T09:45:18.926Z,97234.50
2023-02-11T09:48:19.214Z,97218.44
2023-02-11T09:51:06.237Z,97210.66
2023-02-11T09:54:28.960Z,97209.53
2023-02-11T09:57:27.897Z,97205.03
2023-02-11T10:00:22.056Z,97205.41
2023-02-11T10:03:07.744Z,97193.25
2023-02-11T10:05:56.691Z,97185.88
2023-02-11T10:09:07.369Z,97189.91
2023-02-11T10:12:03.637Z,97179.25
2023-02-11T10:15:26.366Z,97173.00
2023-02-11T10:18:46.186Z,97158.84
2023-02-11T10:21:36.420Z,97161.91
2023-02-11T10:24:22.446Z,97149.56
2023-02-11T10:27:21.331Z,97136.53
2023-02-11T10:30:17.011Z,97132.31
2023-02-11T10:33:03.718Z,97130.19
2023-02-11T10:35:50.024Z,97099.56
2023-02-11T10:38:37.060Z,97103.91
2023-02-11T10:41:28.589Z,97103.13
2023-02-11T10:44:25.941Z,97101.75
2023-02-11T10:47:18.668Z,97082.28
2023-02-11T10:50:23.182Z,97085.78
2023-02-11T10:53:13.638Z,97066.41
2023-02-11T10:55:59.742Z,97066.91
2023-02-11T10:58:59.522Z,97051.31
2023-02-11T11:01:49.562Z,97043.19
2023-02-11T11:04:37.834Z,97038.09
2023-02-11T11:07:28.991Z,97051.44
2023-02-11T11:10:47.010Z,97045.94
2023-02-11T11:13:41.101Z,97048.59
2023-02-11T11:16:36.973Z,97039.25
2023-02-11T11:19:25.222Z,97030.34
2023-02-11T11:22:20.502Z,97027.31
2023-02-11T11:25:29.724Z,97028.66
2023-02-11T11:28:27.314Z,97021.19
2023-02-11T11:31:19.378Z,97016.84
2023-02-11T11:34:29.804Z,97012.50
2023-02-11T11:37:28.532Z,97013.50
2023-02-11T11:40:18.185Z,97010.97
2023-02-11T11:43:07.172Z,97006.84
2023-02-11T11:45:56.065Z,97002.88
2023-02-11T11:48:47.211Z,97002.63
2023-02-11T11:51:34.120Z,96994.81
2023-02-11T11:54:20.634Z,96986.25
2023-02-11T11:57:15.164Z,96968.97
2023-02-11T12:00:01.115Z,96974.75
2023-02-11T12:03:25.532Z,96964.22
2023-02-11T12:06:29.106Z,96946.78
2023-02-11T12:09:27.053Z,96955.50
2023-02-11T12:12:13.171Z,96941.69
2023-02-11T12:15:34.788Z,96894.72
2023-02-11T12:18:23.670Z,96932.50
2023-02-11T12:21:29.500Z,96921.69
2023-02-11T12:24:33.160Z,96894.16
2023-02-11T12:27:56.358Z,96891.41
2023-02-11T12:30:48.800Z,96913.53
2023-02-11T12:33:50.352Z,96908.66
2023-02-11T12:37:11.578Z,96897.78
2023-02-11T12:40:15.632Z,96903.53
2023-02-11T12:43:16.967Z,96893.22
2023-02-11T12:46:24.839Z,96888.91
2023-02-11T12:49:17.056Z,96882.50
2023-02-11T12:52:55.716Z,96890.34
2023-02-11T12:55:45.359Z,96889.03
2023-02-11T12:58:44.646Z,96859.91
2023-02-11T13:01:34.753Z,96877.88
2023-02-11T13:04:36.070Z,96866.22
2023-02-11T13:07:33.704Z,96873.16
2023-02-11T13:10:32.277Z,96867.28
2023-02-11T13:13:27.547Z,96868.69
2023-02-11T13:16:23.856Z,96861.13
2023-02-11T13:19:29.278Z,96853.13
2023-02-11T13:22:28.673Z,96861.03
2023-02-11T13:25:36.967Z,96841.81
2023-02-11T13:28:50.493Z,96851.78
2023-02-11T13:31:37.003Z,96852.25
2023-02-11T13:34:48.079Z,96838.22
2023-02-11T13:37:39.079Z,96851.38
2023-02-11T13:40:29.048Z,96855.50
2023-02-11T13:43:23.922Z,96846.34
2023-02-11T13:46:12.472Z,96842.22
2023-02-11T13:48:58.333Z,96833.47
2023-02-11T13:51:44.442Z,96842.22
2023-02-11T13:54:38.968Z,96821.25
2023-02-11T13:57:36.503Z,96819.66
2023-02-11T14:00:34.351Z,96817.84
2023-02-11T14:03:44.275Z,96793.44
2023-02-11T14:07:05.861Z,96793.78
2023-02-11T14:09:57.370Z,96796.47
2023-02-11T14:12:43.695Z,96801.50
2023-02-11T14:15:39.681Z,96789.06
2023-02-11T14:18:44.415Z,96804.06
2023-02-11T14:21:36.315Z,96796.75
2023-02-11T14:24:34.884Z,96807.00
2023-02-11T14:27:38.402Z,96779.38
2023-02-11T14:30:27.770Z,96782.38
2023-02-11T14:33:45.797Z,96799.06
2023-02-11T14:36:39.689Z,96796.06
2023-02-11T14:39:32.367Z,96795.97
2023-02-11T14:42:25.538Z,96787.47
2023-02-11T14:45:16.775Z,96772.09
2023-02-11T14:48:04.224Z,96779.97
2023-02-11T14:50:54.275Z,96772.59
2023-02-11T14:53:44.703Z,96751.88
2023-02-11T14:56:34.609Z,96754.31
2023-02-11T14:59:23.113Z,96768.00
2023-02-11T15:02:30.595Z,96755.31
2023-02-11T15:05:22.784Z,96774.66
2023-02-11T15:08:14.911Z,96748.63
2023-02-11T15:11:03.525Z,96770.38
2023-02-11T15:13:50.510Z,96759.16
2023-02-11T15:16:41.715Z,96755.34
2023-02-11T15:19:37.879Z,96755.38
2023-02-11T15:22:33.133Z,96773.59
2023-02-11T15:25:20.179Z,96766.19
2023-02-11T15:28:21.320Z,96756.22
2023-02-11T15:31:18.063Z,96749.78
2023-02-11T15:34:08.972Z,96777.41
2023-02-11T15:36:55.018Z,96780.34
2023-02-11T15:39:42.278Z,96763.09
2023-02-11T15:42:35.794Z,96764.75
2023-02-11T15:45:31.531Z,96772.91
2023-02-11T15:48:22.303Z,96781.41
2023-02-11T15:51:28.720Z,96764.56
2023-02-11T15:54:20.968Z,96774.19
2023-02-11T15:57:08.704Z,96789.66
2023-02-11T15:59:56.355Z,96787.25
2023-02-11T16:02:45.652Z,96786.16
2023-02-11T16:05:37.193Z,96782.91
2023-02-11T16:08:29.985Z,96771.50
2023-02-11T16:11:26.343Z,96790.88
2023-02-11T16:14:34.411Z,96788.59
2023-02-11T16:17:24.777Z,96754.88
2023-02-11T16:20:20.288Z,96775.34
2023-02-11T16:23:07.439Z,96799.47
2023-02-11T16:26:07.081Z,96787.66
2023-02-11T16:28:53.237Z,96795.75
2023-02-11T16:31:41.871Z,96798.25
2023-02-11T16:34:28.445Z,96787.66
2023-02-11T16:37:15.084Z,96794.22
2023-02-11T16:40:00.861Z,96792.94
2023-02-11T16:42:46.929Z,96800.31
2023-02-11T16:45:37.592Z,96778.22
2023-02-11T16:48:23.708Z,96809.44
2023-02-11T17:13:28.959Z,96828.13
2023-02-11T17:16:18.308Z,96827.53
2023-02-11T17:19:04.685Z,96833.19
2023-02-11T17:21:52.534Z,96842.22
2023-02-11T17:24:38.714Z,96838.63
2023-02-11T17:27:24.789Z,96840.91
2023-02-11T17:30:11.666Z,96828.13
2023-02-11T17:32:57.726Z,96834.75
2023-02-11T17:35:43.561Z,96842.59
2023-02-11T17:38:29.431Z,96839.56
2023-02-11T17:41:16.289Z,96838.13
2023-02-11T17:44:02.450Z,96821.84
2023-02-11T17:46:48.719Z,96805.78
2023-02-11T17:49:34.872Z,96835.19
2023-02-11T17:52:21.622Z,96839.25
2023-02-11T17:55:07.959Z,96839.25
2023-02-11T17:57:53.920Z,96836.13
2023-02-11T18:00:40.015Z,96847.69
2023-02-11T18:03:26.349Z,96836.72
2023-02-11T18:06:12.705Z,96833.66
2023-02-11T18:08:59.842Z,96837.50
2023-02-11T18:11:45.898Z,96843.03
2023-02-11T18:14:32.072Z,96842.06
2023-02-11T18:17:17.903Z,96837.47
2023-02-11T18:20:05.017Z,96848.28
2023-02-11T18:22:51.046Z,96855.72
2023-02-11T18:25:37.426Z,96857.44
2023-02-11T18:28:23.210Z,96833.88
2023-02-11T18:31:09.549Z,96855.56
2023-02-11T18:33:55.612Z,96864.59
2023-02-11T18:36:41.590Z,96838.28
2023-02-11T18:39:27.438Z,96850.22
2023-02-11T18:42:13.817Z,96846.22
2023-02-11T18:45:00.279Z,96829.84
2023-02-11T18:47:45.981Z,96837.28
2023-02-11T18:50:31.949Z,96829.44
2023-02-11T18:53:18.126Z,96837.81
2023-02-11T18:56:15.608Z,96839.50
2023-02-11T18:59:01.980Z,96844.66
2023-02-11T19:01:48.052Z,96840.59
2023-02-11T19:04:37.311Z,96832.16
2023-02-11T19:07:23.242Z,96838.34
2023-02-11T19:10:10.228Z,96817.34
2023-02-11T19:12:58.949Z,96840.28
2023-02-11T19:15:45.977Z,96832.06
2023-02-11T19:18:32.436Z,96824.34
2023-02-11T19:21:20.575Z,96827.34
2023-02-11T19:24:08.084Z,96833.47
2023-02-11T19:26:57.895Z,96833.78
2023-02-11T19:29:43.993Z,96830.06
2023-02-11T19:32:30.226Z,96823.31
2023-02-11T19:35:16.305Z,96808.78
2023-02-11T19:38:03.770Z,96807.59
2023-02-11T19:40:56.353Z,96838.88
2023-02-11T19:43:43.418Z,96820.28
2023-02-11T19:46:32.180Z,96831.38
2023-02-11T19:49:22.922Z,96813.53
2023-02-11T19:52:09.661Z,96836.78
2023-02-11T19:54:55.965Z,96834.34
2023-02-11T19:57:42.142Z,96832.78
2023-02-11T20:00:28.464Z,96833.22
2023-02-11T20:03:14.367Z,96824.00
2023-02-11T20:06:00.312Z,96820.00
2023-02-11T20:08:46.816Z,96820.41
2023-02-11T20:11:34.347Z,96831.41
2023-02-11T20:14:20.382Z,96826.22
2023-02-11T20:17:06.408Z,96821.03
2023-02-11T20:19:52.562Z,96809.53
2023-02-11T20:22:39.534Z,96818.28
2023-02-11T20:25:27.199Z,96804.56
2023-02-11T20:28:14.343Z,96807.00
2023-02-11T20:31:00.886Z,96804.47
2023-02-11T20:33:47.462Z,96820.84
2023-02-11T20:36:37.666Z,96787.88
2023-02-11T20:39:24.669Z,96805.31
2023-02-11T20:42:14.553Z,96800.75
2023-02-11T20:45:00.802Z,96782.06
2023-02-11T20:47:46.982Z,96797.16
2023-02-11T20:50:34.481Z,96771.16
2023-02-11T20:53:20.318Z,96774.00
2023-02-11T20:56:09.122Z,96776.31
2023-02-11T20:58:57.861Z,96774.31
2023-02-11T21:01:46.914Z,96760.66
2023-02-11T21:04:33.932Z,96769.41
2023-02-11T21:07:20.413Z,96762.56
2023-02-11T21:10:07.273Z,96747.13
2023-02-11T21:12:53.328Z,96773.53
2023-02-11T21:15:39.182Z,96754.00
2023-02-11T21:18:25.274Z,96757.38
2023-02-11T21:21:11.393Z,96775.19
2023-02-11T21:23:58.705Z,96779.44
2023-02-11T21:26:44.718Z,96778.69
2023-02-11T21:29:30.689Z,96778.69
2023-02-11T21:32:17.705Z,96781.25
2023-02-11T21:35:03.649Z,96788.22
2023-02-11T21:37:49.641Z,96765.09
2023-02-11T21:40:35.505Z,96770.03
2023-02-11T21:43:21.820Z,96779.66
2023-02-11T21:46:09.881Z,96773.91
2023-02-11T21:48:57.168Z,96768.53
2023-02-11T21:51:43.005Z,96784.94
2023-02-11T21:54:32.106Z,96771.22
2023-02-11T21:57:18.471Z,96787.03
2023-02-11T22:00:07.808Z,96787.59
2023-02-11T22:02:54.296Z,96789.09
2023-02-11T22:05:41.276Z,96776.22
2023-02-11T22:08:27.462Z,96769.50
2023-02-11T22:11:13.613Z,96769.88
2023-02-11T22:13:59.897Z,96781.59
2023-02-11T22:16:47.636Z,96759.81
2023-02-11T22:19:34.300Z,96754.56
2023-02-11T22:22:21.285Z,96777.78
2023-02-11T22:25:07.695Z,96768.19
2023-02-11T22:27:53.430Z,96782.44
2023-02-11T22:30:39.388Z,96778.31
2023-02-11T22:33:26.360Z,96789.53
2023-02-11T22:36:20.826Z,96765.66
2023-02-11T22:39:13.534Z,96776.63
2023-02-11T22:41:59.853Z,96783.44
2023-02-11T22:44:45.899Z,96785.28
2023-02-11T22:47:31.892Z,96779.28
2023-02-11T22:50:17.863Z,96786.03
2023-02-11T22:53:04.096Z,96787.22
2023-02-11T22:55:49.843Z,96774.31
2023-02-11T22:58:36.957Z,96769.22
2023-02-11T23:01:22.893Z,96773.88
2023-02-11T23:04:11.521Z,96756.09
2023-02-11T23:06:57.498Z,96773.38
2023-02-11T23:09:43.464Z,96782.97
2023-02-11T23:12:29.222Z,96779.41
2023-02-11T23:15:15.102Z,96786.38
2023-02-11T23:18:00.929Z,96786.38
2023-02-11T23:20:46.800Z,96799.34
2023-02-11T23:23:33.465Z,96784.56
2023-02-11T23:26:19.516Z,96780.47
2023-02-11T23:29:05.970Z,96789.03
2023-02-11T23:31:51.950Z,96778.88
2023-02-11T23:34:38.048Z,96783.09
2023-02-11T23:37:23.763Z,96781.31
2023-02-11T23:40:10.378Z,96785.88
2023-02-11T23:42:56.373Z,96769.91
2023-02-11T23:45:42.528Z,96785.97
2023-02-11T23:48:28.604Z,96790.66
2023-02-11T23:51:14.456Z,96780.50
2023-02-11T23:54:00.729Z,96777.00
2023-02-11T23:56:47.050Z,96777.34
2023-02-11T23:59:32.749Z,96765.47
